sensor_id;sensor_type;location;lat;lon;timestamp;P1;durP1;ratioP1;P2;durP2;ratioP2
2850;SDS011;1433;49.976;8.342;2024-02-28T00:01:07;22.87;;;15.47;;
2850;SDS011;1433;49.976;8.342;2024-02-28T00:03:33;21.27;;;14.67;;
2850;SDS011;1433;49.976;8.342;2024-02-28T00:05:59;19.13;;;14.93;;
2850;SDS011;1433;49.976;8.342;2024-02-28T00:08:25;29.53;;;13.00;;
2850;SDS011;1433;49.976;8.342;2024-02-28T00:10:50;24.20;;;16.20;;
2850;SDS011;1433;49.976;8.342;2024-02-28T00:13:16;21.67;;;13.80;;
2850;SDS011;1433;49.976;8.342;2024-02-28T00:15:42;27.23;;;16.43;;
2850;SDS011;1433;49.976;8.342;2024-02-28T00:18:08;23.00;;;16.87;;
2850;SDS011;1433;49.976;8.342;2024-02-28T00:20:35;25.20;;;15.33;;
2850;SDS011;1433;49.976;8.342;2024-02-28T00:23:01;23.53;;;16.50;;
2850;SDS011;1433;49.976;8.342;2024-02-28T00:25:27;23.97;;;16.57;;
2850;SDS011;1433;49.976;8.342;2024-02-28T00:27:53;19.60;;;15.23;;
2850;SDS011;1433;49.976;8.342;2024-02-28T00:30:18;26.83;;;15.30;;
2850;SDS011;1433;49.976;8.342;2024-02-28T00:32:44;28.57;;;17.17;;
2850;SDS011;1433;49.976;8.342;2024-02-28T00:35:10;25.70;;;16.53;;
2850;SDS011;1433;49.976;8.342;2024-02-28T00:37:36;27.37;;;18.53;;
2850;SDS011;1433;49.976;8.342;2024-02-28T00:40:02;28.33;;;18.07;;
2850;SDS011;1433;49.976;8.342;2024-02-28T00:42:29;25.83;;;17.43;;
2850;SDS011;1433;49.976;8.342;2024-02-28T00:44:55;24.53;;;16.63;;
2850;SDS011;1433;49.976;8.342;2024-02-28T00:47:21;22.70;;;16.87;;
2850;SDS011;1433;49.976;8.342;2024-02-28T00:49:49;28.73;;;18.20;;
2850;SDS011;1433;49.976;8.342;2024-02-28T00:52:15;30.20;;;17.80;;
2850;SDS011;1433;49.976;8.342;2024-02-28T00:54:41;23.67;;;17.50;;
2850;SDS011;1433;49.976;8.342;2024-02-28T00:57:07;24.77;;;16.07;;
2850;SDS011;1433;49.976;8.342;2024-02-28T00:59:32;25.17;;;17.63;;
2850;SDS011;1433;49.976;8.342;2024-02-28T01:01:58;27.20;;;18.30;;
2850;SDS011;1433;49.976;8.342;2024-02-28T01:04:24;26.27;;;17.10;;
2850;SDS011;1433;49.976;8.342;2024-02-28T01:06:50;24.63;;;15.93;;
2850;SDS011;1433;49.976;8.342;2024-02-28T01:09:16;26.73;;;15.50;;
2850;SDS011;1433;49.976;8.342;2024-02-28T01:11:42;23.00;;;16.27;;
2850;SDS011;1433;49.976;8.342;2024-02-28T01:14:07;21.27;;;14.97;;
2850;SDS011;1433;49.976;8.342;2024-02-28T01:16:33;25.33;;;14.60;;
2850;SDS011;1433;49.976;8.342;2024-02-28T01:19:00;20.83;;;14.43;;
2850;SDS011;1433;49.976;8.342;2024-02-28T01:21:26;24.30;;;12.33;;
2850;SDS011;1433;49.976;8.342;2024-02-28T01:23:52;22.67;;;13.37;;
2850;SDS011;1433;49.976;8.342;2024-02-28T01:26:17;26.53;;;12.50;;
2850;SDS011;1433;49.976;8.342;2024-02-28T01:28:46;22.20;;;12.00;;
2850;SDS011;1433;49.976;8.342;2024-02-28T01:31:12;19.23;;;11.10;;
2850;SDS011;1433;49.976;8.342;2024-02-28T01:33:38;17.07;;;11.47;;
2850;SDS011;1433;49.976;8.342;2024-02-28T01:36:05;22.30;;;11.40;;
2850;SDS011;1433;49.976;8.342;2024-02-28T01:38:32;18.70;;;12.50;;
2850;SDS011;1433;49.976;8.342;2024-02-28T01:40:58;16.00;;;10.07;;
2850;SDS011;1433;49.976;8.342;2024-02-28T01:43:24;19.20;;;12.40;;
2850;SDS011;1433;49.976;8.342;2024-02-28T01:45:50;22.63;;;14.27;;
2850;SDS011;1433;49.976;8.342;2024-02-28T01:48:16;19.93;;;15.00;;
2850;SDS011;1433;49.976;8.342;2024-02-28T01:50:42;21.80;;;13.00;;
2850;SDS011;1433;49.976;8.342;2024-02-28T01:53:08;17.70;;;11.23;;
2850;SDS011;1433;49.976;8.342;2024-02-28T01:55:37;19.40;;;11.90;;
2850;SDS011;1433;49.976;8.342;2024-02-28T01:58:03;20.00;;;12.40;;
2850;SDS011;1433;49.976;8.342;2024-02-28T02:00:31;21.57;;;13.70;;
2850;SDS011;1433;49.976;8.342;2024-02-28T02:03:00;19.23;;;11.53;;
2850;SDS011;1433;49.976;8.342;2024-02-28T02:05:26;22.90;;;15.47;;
2850;SDS011;1433;49.976;8.342;2024-02-28T02:07:52;18.80;;;11.60;;
2850;SDS011;1433;49.976;8.342;2024-02-28T02:10:20;24.53;;;13.10;;
2850;SDS011;1433;49.976;8.342;2024-02-28T02:12:46;17.63;;;12.83;;
2850;SDS011;1433;49.976;8.342;2024-02-28T02:15:12;17.80;;;11.93;;
2850;SDS011;1433;49.976;8.342;2024-02-28T02:17:38;22.57;;;14.60;;
2850;SDS011;1433;49.976;8.342;2024-02-28T02:20:04;19.50;;;12.77;;
2850;SDS011;1433;49.976;8.342;2024-02-28T02:22:35;16.37;;;11.57;;
2850;SDS011;1433;49.976;8.342;2024-02-28T02:25:04;16.33;;;11.93;;
2850;SDS011;1433;49.976;8.342;2024-02-28T02:27:30;21.70;;;13.73;;
2850;SDS011;1433;49.976;8.342;2024-02-28T02:29:56;21.87;;;12.83;;
2850;SDS011;1433;49.976;8.342;2024-02-28T02:32:22;22.53;;;13.67;;
2850;SDS011;1433;49.976;8.342;2024-02-28T02:34:48;27.50;;;13.73;;
2850;SDS011;1433;49.976;8.342;2024-02-28T02:37:14;21.90;;;13.87;;
2850;SDS011;1433;49.976;8.342;2024-02-28T02:39:40;22.43;;;14.77;;
2850;SDS011;1433;49.976;8.342;2024-02-28T02:42:06;27.87;;;14.90;;
2850;SDS011;1433;49.976;8.342;2024-02-28T02:44:32;25.90;;;14.60;;
2850;SDS011;1433;49.976;8.342;2024-02-28T02:47:00;26.93;;;15.50;;
2850;SDS011;1433;49.976;8.342;2024-02-28T02:49:26;30.57;;;15.53;;
2850;SDS011;1433;49.976;8.342;2024-02-28T02:51:51;29.90;;;17.37;;
2850;SDS011;1433;49.976;8.342;2024-02-28T02:54:17;27.70;;;15.80;;
2850;SDS011;1433;49.976;8.342;2024-02-28T02:56:43;26.80;;;16.33;;
2850;SDS011;1433;49.976;8.342;2024-02-28T02:59:12;26.00;;;16.70;;
2850;SDS011;1433;49.976;8.342;2024-02-28T03:01:55;26.73;;;16.67;;
2850;SDS011;1433;49.976;8.342;2024-02-28T03:04:21;29.83;;;17.67;;
2850;SDS011;1433;49.976;8.342;2024-02-28T03:06:47;32.30;;;17.93;;
2850;SDS011;1433;49.976;8.342;2024-02-28T03:09:12;34.33;;;16.87;;
2850;SDS011;1433;49.976;8.342;2024-02-28T03:11:38;30.57;;;17.07;;
2850;SDS011;1433;49.976;8.342;2024-02-28T03:14:04;35.90;;;18.53;;
2850;SDS011;1433;49.976;8.342;2024-02-28T03:16:30;35.80;;;20.40;;
2850;SDS011;1433;49.976;8.342;2024-02-28T03:18:56;31.60;;;18.60;;
2850;SDS011;1433;49.976;8.342;2024-02-28T03:21:22;28.63;;;16.00;;
2850;SDS011;1433;49.976;8.342;2024-02-28T03:23:47;34.03;;;18.70;;
2850;SDS011;1433;49.976;8.342;2024-02-28T03:26:13;38.13;;;17.57;;
2850;SDS011;1433;49.976;8.342;2024-02-28T03:28:39;33.93;;;16.90;;
2850;SDS011;1433;49.976;8.342;2024-02-28T03:31:05;28.27;;;17.27;;
2850;SDS011;1433;49.976;8.342;2024-02-28T03:33:31;28.97;;;17.93;;
2850;SDS011;1433;49.976;8.342;2024-02-28T03:35:58;26.73;;;17.33;;
2850;SDS011;1433;49.976;8.342;2024-02-28T03:38:23;39.60;;;19.33;;
2850;SDS011;1433;49.976;8.342;2024-02-28T03:40:49;30.80;;;18.13;;
2850;SDS011;1433;49.976;8.342;2024-02-28T03:43:15;24.70;;;16.93;;
2850;SDS011;1433;49.976;8.342;2024-02-28T03:45:41;22.10;;;15.70;;
2850;SDS011;1433;49.976;8.342;2024-02-28T03:48:07;25.97;;;16.07;;
2850;SDS011;1433;49.976;8.342;2024-02-28T03:50:33;29.40;;;15.67;;
2850;SDS011;1433;49.976;8.342;2024-02-28T03:52:59;26.13;;;14.23;;
2850;SDS011;1433;49.976;8.342;2024-02-28T03:55:25;26.90;;;14.83;;
2850;SDS011;1433;49.976;8.342;2024-02-28T03:57:51;35.50;;;15.57;;
2850;SDS011;1433;49.976;8.342;2024-02-28T04:00:17;32.47;;;17.73;;
2850;SDS011;1433;49.976;8.342;2024-02-28T04:02:43;34.47;;;16.93;;
2850;SDS011;1433;49.976;8.342;2024-02-28T04:05:09;27.90;;;16.00;;
2850;SDS011;1433;49.976;8.342;2024-02-28T04:07:35;36.83;;;18.60;;
2850;SDS011;1433;49.976;8.342;2024-02-28T04:10:01;39.53;;;18.60;;
2850;SDS011;1433;49.976;8.342;2024-02-28T04:12:29;27.73;;;15.90;;
2850;SDS011;1433;49.976;8.342;2024-02-28T04:14:55;30.00;;;16.43;;
2850;SDS011;1433;49.976;8.342;2024-02-28T04:17:21;31.43;;;17.47;;
2850;SDS011;1433;49.976;8.342;2024-02-28T04:19:46;34.50;;;18.23;;
2850;SDS011;1433;49.976;8.342;2024-02-28T04:22:12;30.93;;;16.33;;
2850;SDS011;1433;49.976;8.342;2024-02-28T04:24:38;28.03;;;16.93;;
2850;SDS011;1433;49.976;8.342;2024-02-28T04:27:04;32.47;;;15.70;;
2850;SDS011;1433;49.976;8.342;2024-02-28T04:29:31;23.57;;;15.10;;
2850;SDS011;1433;49.976;8.342;2024-02-28T04:31:56;38.40;;;19.40;;
2850;SDS011;1433;49.976;8.342;2024-02-28T04:34:22;29.40;;;16.00;;
2850;SDS011;1433;49.976;8.342;2024-02-28T04:36:48;31.10;;;17.37;;
2850;SDS011;1433;49.976;8.342;2024-02-28T04:39:14;31.10;;;16.30;;
2850;SDS011;1433;49.976;8.342;2024-02-28T04:41:40;36.47;;;16.33;;
2850;SDS011;1433;49.976;8.342;2024-02-28T04:44:06;28.13;;;13.37;;
2850;SDS011;1433;49.976;8.342;2024-02-28T04:46:33;26.73;;;14.90;;
2850;SDS011;1433;49.976;8.342;2024-02-28T04:48:59;34.50;;;16.73;;
2850;SDS011;1433;49.976;8.342;2024-02-28T04:51:26;29.00;;;14.80;;
2850;SDS011;1433;49.976;8.342;2024-02-28T04:53:51;24.30;;;14.47;;
2850;SDS011;1433;49.976;8.342;2024-02-28T04:56:17;28.60;;;17.23;;
2850;SDS011;1433;49.976;8.342;2024-02-28T04:58:43;32.77;;;16.97;;
2850;SDS011;1433;49.976;8.342;2024-02-28T05:01:09;23.43;;;11.70;;
2850;SDS011;1433;49.976;8.342;2024-02-28T05:03:35;31.17;;;14.60;;
2850;SDS011;1433;49.976;8.342;2024-02-28T05:06:00;35.63;;;16.30;;
2850;SDS011;1433;49.976;8.342;2024-02-28T05:08:26;26.63;;;15.50;;
2850;SDS011;1433;49.976;8.342;2024-02-28T05:10:53;26.23;;;17.20;;
2850;SDS011;1433;49.976;8.342;2024-02-28T05:13:19;21.83;;;13.73;;
2850;SDS011;1433;49.976;8.342;2024-02-28T05:15:47;28.33;;;16.57;;
2850;SDS011;1433;49.976;8.342;2024-02-28T05:18:13;21.43;;;13.90;;
2850;SDS011;1433;49.976;8.342;2024-02-28T05:20:39;24.70;;;13.10;;
2850;SDS011;1433;49.976;8.342;2024-02-28T05:23:05;29.77;;;13.67;;
2850;SDS011;1433;49.976;8.342;2024-02-28T05:25:31;25.43;;;13.27;;
2850;SDS011;1433;49.976;8.342;2024-02-28T05:27:59;26.73;;;13.87;;
2850;SDS011;1433;49.976;8.342;2024-02-28T05:30:25;29.50;;;13.27;;
2850;SDS011;1433;49.976;8.342;2024-02-28T05:32:51;27.07;;;14.20;;
2850;SDS011;1433;49.976;8.342;2024-02-28T05:35:17;28.47;;;14.60;;
2850;SDS011;1433;49.976;8.342;2024-02-28T05:37:44;27.47;;;14.43;;
2850;SDS011;1433;49.976;8.342;2024-02-28T05:40:11;38.63;;;16.10;;
2850;SDS011;1433;49.976;8.342;2024-02-28T05:42:38;26.37;;;15.13;;
2850;SDS011;1433;49.976;8.342;2024-02-28T05:45:05;33.00;;;13.33;;
2850;SDS011;1433;49.976;8.342;2024-02-28T05:47:32;25.73;;;13.47;;
2850;SDS011;1433;49.976;8.342;2024-02-28T05:49:58;22.90;;;12.77;;
2850;SDS011;1433;49.976;8.342;2024-02-28T05:52:24;31.23;;;17.40;;
2850;SDS011;1433;49.976;8.342;2024-02-28T05:54:50;25.00;;;15.67;;
2850;SDS011;1433;49.976;8.342;2024-02-28T05:57:16;24.80;;;13.53;;
2850;SDS011;1433;49.976;8.342;2024-02-28T05:59:42;24.50;;;12.50;;
2850;SDS011;1433;49.976;8.342;2024-02-28T06:02:08;27.23;;;17.30;;
2850;SDS011;1433;49.976;8.342;2024-02-28T06:04:34;27.43;;;12.53;;
2850;SDS011;1433;49.976;8.342;2024-02-28T06:07:00;23.10;;;13.13;;
2850;SDS011;1433;49.976;8.342;2024-02-28T06:09:26;22.07;;;13.40;;
2850;SDS011;1433;49.976;8.342;2024-02-28T06:11:55;26.20;;;14.33;;
2850;SDS011;1433;49.976;8.342;2024-02-28T06:14:21;21.40;;;12.20;;
2850;SDS011;1433;49.976;8.342;2024-02-28T06:16:47;27.50;;;14.93;;
2850;SDS011;1433;49.976;8.342;2024-02-28T06:19:13;33.40;;;12.93;;
2850;SDS011;1433;49.976;8.342;2024-02-28T06:21:39;25.30;;;13.57;;
2850;SDS011;1433;49.976;8.342;2024-02-28T06:24:04;29.30;;;14.77;;
2850;SDS011;1433;49.976;8.342;2024-02-28T06:26:31;35.13;;;16.87;;
2850;SDS011;1433;49.976;8.342;2024-02-28T06:28:57;27.27;;;12.27;;
2850;SDS011;1433;49.976;8.342;2024-02-28T06:31:27;21.33;;;11.63;;
2850;SDS011;1433;49.976;8.342;2024-02-28T06:33:56;35.47;;;13.60;;
2850;SDS011;1433;49.976;8.342;2024-02-28T06:36:22;27.47;;;14.77;;
2850;SDS011;1433;49.976;8.342;2024-02-28T06:38:48;30.57;;;14.77;;
2850;SDS011;1433;49.976;8.342;2024-02-28T06:41:14;36.50;;;16.50;;
2850;SDS011;1433;49.976;8.342;2024-02-28T06:43:41;22.37;;;12.73;;
2850;SDS011;1433;49.976;8.342;2024-02-28T06:46:07;24.87;;;13.60;;
2850;SDS011;1433;49.976;8.342;2024-02-28T06:48:34;31.23;;;16.13;;
2850;SDS011;1433;49.976;8.342;2024-02-28T06:51:00;30.03;;;14.47;;
2850;SDS011;1433;49.976;8.342;2024-02-28T06:53:26;20.50;;;14.03;;
2850;SDS011;1433;49.976;8.342;2024-02-28T06:55:52;20.63;;;12.87;;
2850;SDS011;1433;49.976;8.342;2024-02-28T06:58:18;25.27;;;12.57;;
2850;SDS011;1433;49.976;8.342;2024-02-28T07:00:44;34.63;;;15.73;;
2850;SDS011;1433;49.976;8.342;2024-02-28T07:03:09;26.70;;;13.23;;
2850;SDS011;1433;49.976;8.342;2024-02-28T07:05:35;28.23;;;15.83;;
2850;SDS011;1433;49.976;8.342;2024-02-28T07:08:01;30.90;;;17.03;;
2850;SDS011;1433;49.976;8.342;2024-02-28T07:10:28;25.90;;;13.10;;
2850;SDS011;1433;49.976;8.342;2024-02-28T07:12:54;47.93;;;17.70;;
2850;SDS011;1433;49.976;8.342;2024-02-28T07:15:20;31.43;;;14.20;;
2850;SDS011;1433;49.976;8.342;2024-02-28T07:17:46;24.93;;;14.13;;
2850;SDS011;1433;49.976;8.342;2024-02-28T07:20:13;29.23;;;15.30;;
2850;SDS011;1433;49.976;8.342;2024-02-28T07:22:39;27.83;;;14.60;;
2850;SDS011;1433;49.976;8.342;2024-02-28T07:25:08;23.93;;;12.40;;
2850;SDS011;1433;49.976;8.342;2024-02-28T07:27:34;34.23;;;16.10;;
2850;SDS011;1433;49.976;8.342;2024-02-28T07:30:01;23.57;;;12.93;;
2850;SDS011;1433;49.976;8.342;2024-02-28T07:32:28;29.27;;;14.47;;
2850;SDS011;1433;49.976;8.342;2024-02-28T07:34:59;28.80;;;14.87;;
2850;SDS011;1433;49.976;8.342;2024-02-28T07:37:26;23.63;;;13.30;;
2850;SDS011;1433;49.976;8.342;2024-02-28T07:39:52;23.53;;;14.50;;
2850;SDS011;1433;49.976;8.342;2024-02-28T07:42:18;23.20;;;12.37;;
2850;SDS011;1433;49.976;8.342;2024-02-28T07:44:44;26.07;;;13.37;;
2850;SDS011;1433;49.976;8.342;2024-02-28T07:47:09;32.00;;;15.83;;
2850;SDS011;1433;49.976;8.342;2024-02-28T07:49:35;26.07;;;15.90;;
2850;SDS011;1433;49.976;8.342;2024-02-28T07:52:01;30.53;;;14.77;;
2850;SDS011;1433;49.976;8.342;2024-02-28T07:54:27;24.23;;;14.13;;
2850;SDS011;1433;49.976;8.342;2024-02-28T07:56:53;30.50;;;15.87;;
2850;SDS011;1433;49.976;8.342;2024-02-28T07:59:19;26.03;;;13.50;;
2850;SDS011;1433;49.976;8.342;2024-02-28T08:01:45;27.63;;;13.93;;
2850;SDS011;1433;49.976;8.342;2024-02-28T08:04:11;28.17;;;12.70;;
2850;SDS011;1433;49.976;8.342;2024-02-28T08:06:37;25.87;;;14.73;;
2850;SDS011;1433;49.976;8.342;2024-02-28T08:09:06;23.87;;;16.13;;
2850;SDS011;1433;49.976;8.342;2024-02-28T08:11:32;23.03;;;14.13;;
2850;SDS011;1433;49.976;8.342;2024-02-28T08:13:58;26.70;;;13.70;;
2850;SDS011;1433;49.976;8.342;2024-02-28T08:16:24;39.20;;;15.00;;
2850;SDS011;1433;49.976;8.342;2024-02-28T08:18:50;27.13;;;16.53;;
2850;SDS011;1433;49.976;8.342;2024-02-28T08:21:17;26.10;;;14.17;;
2850;SDS011;1433;49.976;8.342;2024-02-28T08:23:43;26.60;;;15.43;;
2850;SDS011;1433;49.976;8.342;2024-02-28T08:26:09;21.97;;;12.67;;
2850;SDS011;1433;49.976;8.342;2024-02-28T08:28:36;24.03;;;14.10;;
2850;SDS011;1433;49.976;8.342;2024-02-28T08:31:02;27.23;;;14.00;;
2850;SDS011;1433;49.976;8.342;2024-02-28T08:33:28;24.93;;;14.83;;
2850;SDS011;1433;49.976;8.342;2024-02-28T08:35:54;25.67;;;15.03;;
2850;SDS011;1433;49.976;8.342;2024-02-28T08:38:20;21.10;;;14.13;;
2850;SDS011;1433;49.976;8.342;2024-02-28T08:40:46;22.90;;;14.00;;
2850;SDS011;1433;49.976;8.342;2024-02-28T08:43:12;32.03;;;17.63;;
2850;SDS011;1433;49.976;8.342;2024-02-28T08:45:38;28.77;;;14.47;;
2850;SDS011;1433;49.976;8.342;2024-02-28T08:48:03;30.83;;;16.47;;
2850;SDS011;1433;49.976;8.342;2024-02-28T08:50:34;31.50;;;16.70;;
2850;SDS011;1433;49.976;8.342;2024-02-28T08:53:00;28.07;;;16.23;;
2850;SDS011;1433;49.976;8.342;2024-02-28T08:55:28;28.97;;;15.40;;
2850;SDS011;1433;49.976;8.342;2024-02-28T08:57:54;26.77;;;16.37;;
2850;SDS011;1433;49.976;8.342;2024-02-28T09:00:20;33.37;;;17.40;;
2850;SDS011;1433;49.976;8.342;2024-02-28T09:02:47;20.70;;;12.83;;
2850;SDS011;1433;49.976;8.342;2024-02-28T09:05:12;25.90;;;16.80;;
2850;SDS011;1433;49.976;8.342;2024-02-28T09:07:38;25.40;;;17.10;;
2850;SDS011;1433;49.976;8.342;2024-02-28T09:10:04;35.17;;;16.23;;
2850;SDS011;1433;49.976;8.342;2024-02-28T09:12:31;33.27;;;17.57;;
2850;SDS011;1433;49.976;8.342;2024-02-28T09:14:57;33.17;;;17.80;;
2850;SDS011;1433;49.976;8.342;2024-02-28T09:17:24;30.33;;;16.37;;
2850;SDS011;1433;49.976;8.342;2024-02-28T09:19:49;25.27;;;15.73;;
2850;SDS011;1433;49.976;8.342;2024-02-28T09:22:16;24.03;;;15.30;;
2850;SDS011;1433;49.976;8.342;2024-02-28T09:24:43;23.47;;;16.80;;
2850;SDS011;1433;49.976;8.342;2024-02-28T09:27:09;26.57;;;17.73;;
2850;SDS011;1433;49.976;8.342;2024-02-28T09:29:34;28.93;;;16.03;;
2850;SDS011;1433;49.976;8.342;2024-02-28T09:32:01;28.90;;;15.17;;
2850;SDS011;1433;49.976;8.342;2024-02-28T09:34:27;26.63;;;15.00;;
2850;SDS011;1433;49.976;8.342;2024-02-28T09:36:52;20.50;;;12.63;;
2850;SDS011;1433;49.976;8.342;2024-02-28T09:39:18;26.23;;;16.10;;
2850;SDS011;1433;49.976;8.342;2024-02-28T09:41:46;20.57;;;13.10;;
2850;SDS011;1433;49.976;8.342;2024-02-28T09:44:14;25.37;;;15.07;;
2850;SDS011;1433;49.976;8.342;2024-02-28T09:46:41;25.70;;;16.20;;
2850;SDS011;1433;49.976;8.342;2024-02-28T09:49:08;26.37;;;16.67;;
2850;SDS011;1433;49.976;8.342;2024-02-28T09:51:35;22.40;;;13.77;;
2850;SDS011;1433;49.976;8.342;2024-02-28T09:54:02;32.67;;;17.47;;
2850;SDS011;1433;49.976;8.342;2024-02-28T09:56:29;22.13;;;14.20;;
2850;SDS011;1433;49.976;8.342;2024-02-28T09:58:56;23.60;;;15.30;;
2850;SDS011;1433;49.976;8.342;2024-02-28T10:01:23;24.80;;;14.03;;
2850;SDS011;1433;49.976;8.342;2024-02-28T10:03:51;21.07;;;13.47;;
2850;SDS011;1433;49.976;8.342;2024-02-28T10:06:19;22.90;;;15.37;;
2850;SDS011;1433;49.976;8.342;2024-02-28T10:08:45;22.00;;;14.97;;
2850;SDS011;1433;49.976;8.342;2024-02-28T10:11:19;21.40;;;13.30;;
2850;SDS011;1433;49.976;8.342;2024-02-28T10:13:49;26.43;;;15.13;;
2850;SDS011;1433;49.976;8.342;2024-02-28T10:16:15;22.23;;;13.53;;
2850;SDS011;1433;49.976;8.342;2024-02-28T10:18:45;20.23;;;13.60;;
2850;SDS011;1433;49.976;8.342;2024-02-28T10:21:11;23.20;;;12.77;;
2850;SDS011;1433;49.976;8.342;2024-02-28T10:23:40;20.30;;;13.73;;
2850;SDS011;1433;49.976;8.342;2024-02-28T10:26:10;22.40;;;13.87;;
2850;SDS011;1433;49.976;8.342;2024-02-28T10:28:37;18.50;;;12.77;;
2850;SDS011;1433;49.976;8.342;2024-02-28T10:31:08;20.27;;;13.97;;
2850;SDS011;1433;49.976;8.342;2024-02-28T10:33:35;17.30;;;12.57;;
2850;SDS011;1433;49.976;8.342;2024-02-28T10:36:04;19.63;;;13.10;;
2850;SDS011;1433;49.976;8.342;2024-02-28T10:38:31;24.23;;;13.63;;
2850;SDS011;1433;49.976;8.342;2024-02-28T10:40:59;22.70;;;12.43;;
2850;SDS011;1433;49.976;8.342;2024-02-28T10:43:27;22.43;;;13.17;;
2850;SDS011;1433;49.976;8.342;2024-02-28T10:45:56;16.43;;;11.83;;
2850;SDS011;1433;49.976;8.342;2024-02-28T10:48:26;18.37;;;10.63;;
2850;SDS011;1433;49.976;8.342;2024-02-28T10:50:52;19.90;;;12.50;;
2850;SDS011;1433;49.976;8.342;2024-02-28T10:53:22;15.50;;;10.50;;
2850;SDS011;1433;49.976;8.342;2024-02-28T10:56:04;22.47;;;11.70;;
2850;SDS011;1433;49.976;8.342;2024-02-28T10:58:34;18.13;;;11.60;;
2850;SDS011;1433;49.976;8.342;2024-02-28T11:01:02;23.97;;;13.43;;
2850;SDS011;1433;49.976;8.342;2024-02-28T11:03:28;20.10;;;13.83;;
2850;SDS011;1433;49.976;8.342;2024-02-28T11:05:56;17.80;;;12.07;;
2850;SDS011;1433;49.976;8.342;2024-02-28T11:08:23;18.60;;;12.17;;
2850;SDS011;1433;49.976;8.342;2024-02-28T11:13:33;19.77;;;11.97;;
2850;SDS011;1433;49.976;8.342;2024-02-28T11:16:09;16.70;;;12.47;;
2850;SDS011;1433;49.976;8.342;2024-02-28T11:18:36;16.77;;;11.70;;
2850;SDS011;1433;49.976;8.342;2024-02-28T11:21:16;20.60;;;11.17;;
2850;SDS011;1433;49.976;8.342;2024-02-28T11:23:45;17.10;;;12.23;;
2850;SDS011;1433;49.976;8.342;2024-02-28T11:26:14;14.60;;;11.73;;
2850;SDS011;1433;49.976;8.342;2024-02-28T11:28:41;17.40;;;12.20;;
2850;SDS011;1433;49.976;8.342;2024-02-28T11:31:07;18.50;;;11.50;;
2850;SDS011;1433;49.976;8.342;2024-02-28T11:33:34;15.73;;;11.10;;
2850;SDS011;1433;49.976;8.342;2024-02-28T11:36:01;16.77;;;11.87;;
2850;SDS011;1433;49.976;8.342;2024-02-28T11:38:30;19.87;;;12.60;;
2850;SDS011;1433;49.976;8.342;2024-02-28T11:40:56;18.40;;;12.40;;
2850;SDS011;1433;49.976;8.342;2024-02-28T11:43:22;18.13;;;12.77;;
2850;SDS011;1433;49.976;8.342;2024-02-28T11:45:49;16.43;;;12.10;;
2850;SDS011;1433;49.976;8.342;2024-02-28T11:48:15;18.73;;;13.00;;
2850;SDS011;1433;49.976;8.342;2024-02-28T11:51:00;17.90;;;12.40;;
2850;SDS011;1433;49.976;8.342;2024-02-28T11:53:26;13.70;;;11.20;;
2850;SDS011;1433;49.976;8.342;2024-02-28T11:55:53;14.77;;;10.70;;
2850;SDS011;1433;49.976;8.342;2024-02-28T11:58:23;15.53;;;11.80;;
2850;SDS011;1433;49.976;8.342;2024-02-28T12:00:50;18.27;;;11.77;;
2850;SDS011;1433;49.976;8.342;2024-02-28T12:03:23;17.23;;;11.27;;
2850;SDS011;1433;49.976;8.342;2024-02-28T12:05:50;17.47;;;12.27;;
2850;SDS011;1433;49.976;8.342;2024-02-28T12:08:17;16.33;;;11.50;;
2850;SDS011;1433;49.976;8.342;2024-02-28T12:10:48;19.77;;;12.97;;
2850;SDS011;1433;49.976;8.342;2024-02-28T12:13:17;14.40;;;10.67;;
2850;SDS011;1433;49.976;8.342;2024-02-28T12:15:43;15.93;;;11.17;;
2850;SDS011;1433;49.976;8.342;2024-02-28T12:18:11;15.27;;;10.80;;
2850;SDS011;1433;49.976;8.342;2024-02-28T12:20:37;16.07;;;12.30;;
2850;SDS011;1433;49.976;8.342;2024-02-28T12:23:03;16.33;;;11.87;;
2850;SDS011;1433;49.976;8.342;2024-02-28T12:25:30;14.13;;;10.30;;
2850;SDS011;1433;49.976;8.342;2024-02-28T12:27:59;14.93;;;9.90;;
2850;SDS011;1433;49.976;8.342;2024-02-28T12:30:25;9.70;;;8.70;;
2850;SDS011;1433;49.976;8.342;2024-02-28T12:32:51;12.00;;;7.97;;
2850;SDS011;1433;49.976;8.342;2024-02-28T12:35:17;13.73;;;8.80;;
2850;SDS011;1433;49.976;8.342;2024-02-28T12:37:43;9.83;;;6.90;;
2850;SDS011;1433;49.976;8.342;2024-02-28T12:40:10;10.03;;;7.53;;
2850;SDS011;1433;49.976;8.342;2024-02-28T12:42:36;12.70;;;10.10;;
2850;SDS011;1433;49.976;8.342;2024-02-28T12:45:02;10.83;;;8.53;;
2850;SDS011;1433;49.976;8.342;2024-02-28T12:47:28;11.20;;;8.00;;
2850;SDS011;1433;49.976;8.342;2024-02-28T12:49:56;11.13;;;7.80;;
2850;SDS011;1433;49.976;8.342;2024-02-28T12:52:22;12.77;;;8.97;;
2850;SDS011;1433;49.976;8.342;2024-02-28T12:54:49;14.20;;;10.30;;
2850;SDS011;1433;49.976;8.342;2024-02-28T12:57:15;10.30;;;7.90;;
2850;SDS011;1433;49.976;8.342;2024-02-28T12:59:42;10.73;;;8.20;;
2850;SDS011;1433;49.976;8.342;2024-02-28T13:02:08;11.90;;;8.30;;
2850;SDS011;1433;49.976;8.342;2024-02-28T13:04:35;10.73;;;8.53;;
2850;SDS011;1433;49.976;8.342;2024-02-28T13:07:01;14.67;;;10.70;;
2850;SDS011;1433;49.976;8.342;2024-02-28T13:09:27;13.00;;;8.17;;
2850;SDS011;1433;49.976;8.342;2024-02-28T13:11:53;13.30;;;9.17;;
2850;SDS011;1433;49.976;8.342;2024-02-28T13:14:19;10.63;;;7.60;;
2850;SDS011;1433;49.976;8.342;2024-02-28T13:16:45;14.10;;;9.53;;
2850;SDS011;1433;49.976;8.342;2024-02-28T13:19:11;14.83;;;10.13;;
2850;SDS011;1433;49.976;8.342;2024-02-28T13:21:38;10.37;;;9.33;;
2850;SDS011;1433;49.976;8.342;2024-02-28T13:24:05;8.90;;;7.17;;
2850;SDS011;1433;49.976;8.342;2024-02-28T13:26:31;10.57;;;7.70;;
2850;SDS011;1433;49.976;8.342;2024-02-28T13:28:56;11.20;;;8.70;;
2850;SDS011;1433;49.976;8.342;2024-02-28T13:31:22;11.57;;;8.17;;
2850;SDS011;1433;49.976;8.342;2024-02-28T13:33:48;12.50;;;9.47;;
2850;SDS011;1433;49.976;8.342;2024-02-28T13:36:14;9.87;;;8.57;;
2850;SDS011;1433;49.976;8.342;2024-02-28T13:38:40;10.23;;;6.53;;
2850;SDS011;1433;49.976;8.342;2024-02-28T13:41:06;9.47;;;8.50;;
2850;SDS011;1433;49.976;8.342;2024-02-28T13:43:31;12.13;;;7.33;;
2850;SDS011;1433;49.976;8.342;2024-02-28T13:45:58;10.30;;;7.00;;
2850;SDS011;1433;49.976;8.342;2024-02-28T13:48:27;12.97;;;9.60;;
2850;SDS011;1433;49.976;8.342;2024-02-28T13:50:54;11.70;;;9.43;;
2850;SDS011;1433;49.976;8.342;2024-02-28T13:53:20;14.00;;;9.23;;
2850;SDS011;1433;49.976;8.342;2024-02-28T13:55:46;12.10;;;7.93;;
2850;SDS011;1433;49.976;8.342;2024-02-28T13:58:12;9.37;;;7.93;;
2850;SDS011;1433;49.976;8.342;2024-02-28T14:00:43;10.83;;;9.20;;
2850;SDS011;1433;49.976;8.342;2024-02-28T14:03:10;9.00;;;7.43;;
2850;SDS011;1433;49.976;8.342;2024-02-28T14:05:37;9.50;;;8.07;;
2850;SDS011;1433;49.976;8.342;2024-02-28T14:08:03;11.80;;;8.93;;
2850;SDS011;1433;49.976;8.342;2024-02-28T14:10:32;12.43;;;9.17;;
2850;SDS011;1433;49.976;8.342;2024-02-28T14:13:00;10.80;;;7.90;;
2850;SDS011;1433;49.976;8.342;2024-02-28T14:15:26;10.57;;;7.80;;
2850;SDS011;1433;49.976;8.342;2024-02-28T14:17:54;9.00;;;6.13;;
2850;SDS011;1433;49.976;8.342;2024-02-28T14:20:20;12.17;;;7.33;;
2850;SDS011;1433;49.976;8.342;2024-02-28T14:22:46;10.43;;;7.47;;
2850;SDS011;1433;49.976;8.342;2024-02-28T14:25:14;11.63;;;7.83;;
2850;SDS011;1433;49.976;8.342;2024-02-28T14:27:43;9.30;;;7.70;;
2850;SDS011;1433;49.976;8.342;2024-02-28T14:30:11;11.30;;;7.97;;
2850;SDS011;1433;49.976;8.342;2024-02-28T14:32:38;10.27;;;7.27;;
2850;SDS011;1433;49.976;8.342;2024-02-28T14:35:07;9.10;;;6.90;;
2850;SDS011;1433;49.976;8.342;2024-02-28T14:37:36;9.47;;;6.50;;
2850;SDS011;1433;49.976;8.342;2024-02-28T14:40:06;10.90;;;7.30;;
2850;SDS011;1433;49.976;8.342;2024-02-28T14:42:40;8.37;;;6.00;;
2850;SDS011;1433;49.976;8.342;2024-02-28T14:45:09;9.87;;;6.40;;
2850;SDS011;1433;49.976;8.342;2024-02-28T14:47:37;13.10;;;7.67;;
2850;SDS011;1433;49.976;8.342;2024-02-28T14:50:05;10.60;;;6.30;;